createdAt,value
2023-02-06T00:00:54.862Z,2.33
2023-02-06T00:01:59.035Z,2.33
2023-02-06T00:03:03.074Z,2.33
2023-02-06T00:04:07.279Z,2.35
2023-02-06T00:05:11.411Z,2.37
2023-02-06T00:06:15.626Z,2.40
2023-02-06T00:07:19.765Z,2.41
2023-02-06T00:08:23.919Z,2.43
2023-02-06T00:09:28.100Z,2.44
2023-02-06T00:10:32.211Z,2.42
2023-02-06T00:11:36.397Z,2.43
2023-02-06T00:12:40.565Z,2.43
2023-02-06T00:13:44.727Z,2.43
2023-02-06T00:14:48.815Z,2.43
2023-02-06T00:15:53.156Z,2.44
2023-02-06T00:16:57.107Z,2.45
2023-02-06T00:18:01.383Z,2.44
2023-02-06T00:19:05.557Z,2.45
2023-02-06T00:20:09.696Z,2.45
2023-02-06T00:21:13.996Z,2.46
2023-02-06T00:22:18.150Z,2.49
2023-02-06T00:23:22.286Z,2.50
2023-02-06T00:24:26.473Z,2.51
2023-02-06T00:25:30.539Z,2.52
2023-02-06T00:26:34.651Z,2.54
2023-02-06T00:27:38.863Z,2.56
2023-02-06T00:28:43.038Z,2.59
2023-02-06T00:29:47.152Z,2.60
2023-02-06T00:30:51.480Z,2.61
2023-02-06T00:31:55.532Z,2.62
2023-02-06T00:32:59.657Z,2.64
2023-02-06T00:34:03.920Z,2.66
2023-02-06T00:35:07.971Z,2.65
2023-02-06T00:36:12.155Z,2.64
2023-02-06T00:37:16.186Z,2.65
2023-02-06T00:38:20.313Z,2.66
2023-02-06T00:39:24.494Z,2.68
2023-02-06T00:40:28.676Z,2.70
2023-02-06T00:41:32.998Z,2.70
2023-02-06T00:42:37.124Z,2.71
2023-02-06T00:43:41.269Z,2.72
2023-02-06T00:44:45.414Z,2.72
2023-02-06T00:45:49.596Z,2.71
2023-02-06T00:46:53.779Z,2.69
2023-02-06T00:47:57.919Z,2.66
2023-02-06T00:49:02.101Z,2.65
2023-02-06T00:50:06.320Z,2.63
2023-02-06T00:51:10.479Z,2.62
2023-02-06T00:52:14.602Z,2.60
2023-02-06T00:53:18.665Z,2.59
2023-02-06T00:54:22.747Z,2.59
2023-02-06T00:55:27.070Z,2.59
2023-02-06T00:56:31.087Z,2.60
2023-02-06T00:57:35.186Z,2.59
2023-02-06T00:58:39.412Z,2.59
2023-02-06T00:59:43.496Z,2.59
2023-02-06T01:00:47.586Z,2.61
2023-02-06T01:01:52.017Z,2.61
2023-02-06T01:02:56.105Z,2.63
2023-02-06T01:04:00.133Z,2.65
2023-02-06T01:05:04.379Z,2.65
2023-02-06T01:06:08.420Z,2.66
2023-02-06T01:07:12.698Z,2.68
2023-02-06T01:08:16.724Z,2.69
2023-02-06T01:09:20.940Z,2.70
2023-02-06T01:10:25.213Z,2.72
2023-02-06T01:11:29.336Z,2.72
2023-02-06T01:12:33.476Z,2.71
2023-02-06T01:13:37.703Z,2.72
2023-02-06T01:14:41.798Z,2.74
2023-02-06T01:15:46.044Z,2.76
2023-02-06T01:16:50.117Z,2.79
2023-02-06T01:17:54.170Z,2.80
2023-02-06T01:18:58.404Z,2.81
2023-02-06T01:20:02.477Z,2.83
2023-02-06T01:21:06.664Z,2.85
2023-02-06T01:22:10.764Z,2.88
2023-02-06T01:23:15.088Z,2.90
2023-02-06T01:24:19.175Z,2.92
2023-02-06T01:25:23.271Z,2.93
2023-02-06T01:26:27.499Z,2.94
2023-02-06T01:27:31.666Z,2.94
2023-02-06T01:28:35.816Z,2.93
2023-02-06T01:29:39.980Z,2.91
2023-02-06T01:30:44.183Z,2.90
2023-02-06T01:31:48.313Z,2.90
2023-02-06T01:32:52.471Z,2.91
2023-02-06T01:33:56.548Z,2.92
2023-02-06T01:35:00.811Z,2.92
2023-02-06T01:36:05.068Z,2.91
2023-02-06T01:37:09.035Z,2.89
2023-02-06T01:38:13.354Z,2.88
2023-02-06T01:39:17.488Z,2.88
2023-02-06T01:40:21.647Z,2.89
2023-02-06T01:41:25.873Z,2.89
2023-02-06T01:42:30.075Z,2.87
2023-02-06T01:43:34.194Z,2.86
2023-02-06T01:44:38.426Z,2.85
2023-02-06T01:45:42.693Z,2.83
2023-02-06T01:46:46.795Z,2.82
2023-02-06T01:47:56.961Z,2.82
2023-02-06T01:48:59.729Z,2.84
2023-02-06T01:50:03.855Z,2.84
2023-02-06T01:51:07.914Z,2.85
2023-02-06T01:52:12.124Z,2.86
2023-02-06T01:53:16.340Z,2.88
2023-02-06T01:54:20.373Z,2.90
2023-02-06T01:55:24.645Z,2.92
2023-02-06T01:56:28.702Z,2.94
2023-02-06T01:57:32.959Z,2.97
2023-02-06T01:58:37.003Z,2.99
2023-02-06T01:59:41.361Z,3.00
2023-02-06T02:00:45.644Z,3.01
2023-02-06T02:01:49.762Z,2.99
2023-02-06T02:02:53.761Z,2.99
2023-02-06T02:03:57.952Z,2.99
2023-02-06T02:05:02.122Z,3.00
2023-02-06T02:06:06.120Z,3.00
2023-02-06T02:07:10.415Z,3.00
2023-02-06T02:08:14.517Z,2.99
2023-02-06T02:09:18.688Z,2.99
2023-02-06T02:10:22.864Z,2.99
2023-02-06T02:11:27.020Z,2.99
2023-02-06T02:12:45.214Z,2.99
2023-02-06T02:13:47.997Z,2.98
2023-02-06T02:14:52.219Z,2.97
2023-02-06T02:15:56.349Z,2.98
2023-02-06T02:17:00.381Z,2.98
2023-02-06T02:18:04.717Z,2.98
2023-02-06T02:19:08.764Z,2.99
2023-02-06T02:20:12.841Z,3.01
2023-02-06T02:21:31.098Z,3.02
2023-02-06T02:22:33.938Z,3.03
2023-02-06T02:23:37.928Z,3.04
2023-02-06T02:24:42.005Z,3.05
2023-02-06T02:25:46.301Z,3.06
2023-02-06T02:26:50.459Z,3.07
2023-02-06T02:27:54.763Z,3.09
2023-02-06T02:28:58.845Z,3.11
2023-02-06T02:30:03.041Z,3.12
2023-02-06T02:31:07.220Z,3.13
2023-02-06T02:32:11.379Z,3.14
2023-02-06T02:33:15.431Z,3.15
2023-02-06T02:34:19.583Z,3.16
2023-02-06T02:35:23.792Z,3.17
2023-02-06T02:36:27.983Z,3.18
2023-02-06T02:37:32.151Z,3.18
2023-02-06T02:38:36.306Z,3.18
2023-02-06T02:39:40.447Z,3.18
2023-02-06T02:40:44.672Z,3.19
2023-02-06T02:41:48.838Z,3.20
2023-02-06T02:42:52.992Z,3.20
2023-02-06T02:43:57.109Z,3.21
2023-02-06T02:45:01.228Z,3.22
2023-02-06T02:46:06.355Z,3.23
2023-02-06T02:47:10.200Z,3.25
2023-02-06T02:48:14.175Z,3.26
2023-02-06T02:49:18.320Z,3.27
2023-02-06T02:50:22.541Z,3.29
2023-02-06T02:51:26.608Z,3.30
2023-02-06T02:52:37.037Z,3.31
2023-02-06T02:53:39.713Z,3.32
2023-02-06T02:54:43.903Z,3.33
2023-02-06T02:55:47.928Z,3.33
2023-02-06T02:56:52.194Z,3.34
2023-02-06T02:57:56.463Z,3.34
2023-02-06T02:59:00.627Z,3.36
2023-02-06T03:00:04.793Z,3.37
2023-02-06T03:01:08.978Z,3.37
2023-02-06T03:02:13.211Z,3.38
2023-02-06T03:03:17.450Z,3.39
2023-02-06T03:04:21.657Z,3.40
2023-02-06T03:05:25.754Z,3.39
2023-02-06T03:06:30.054Z,3.40
2023-02-06T03:07:34.112Z,3.41
2023-02-06T03:08:38.279Z,3.41
2023-02-06T03:09:44.834Z,3.41
2023-02-06T03:10:46.676Z,3.42
2023-02-06T03:11:50.866Z,3.42
2023-02-06T03:12:55.067Z,3.43
2023-02-06T03:13:59.242Z,3.43
2023-02-06T03:15:03.452Z,3.43
2023-02-06T03:16:10.589Z,3.43
2023-02-06T03:17:13.732Z,3.43
2023-02-06T03:18:17.901Z,3.42
2023-02-06T03:19:22.104Z,3.42
2023-02-06T03:20:27.200Z,3.42
2023-02-06T03:21:30.979Z,3.43
2023-02-06T03:22:35.158Z,3.43
2023-02-06T03:23:39.312Z,3.43
2023-02-06T03:24:43.469Z,3.43
2023-02-06T03:25:47.618Z,3.42
2023-02-06T03:26:51.845Z,3.41
2023-02-06T03:27:56.005Z,3.41
2023-02-06T03:29:00.179Z,3.40
2023-02-06T03:30:04.483Z,3.40
2023-02-06T03:31:08.589Z,3.39
2023-02-06T03:32:12.834Z,3.39
2023-02-06T03:33:16.942Z,3.39
2023-02-06T03:34:20.995Z,3.39
2023-02-06T03:35:25.173Z,3.39
2023-02-06T03:36:29.353Z,3.39
2023-02-06T03:37:33.453Z,3.38
2023-02-06T03:38:37.687Z,3.39
2023-02-06T03:39:41.902Z,3.39
2023-02-06T03:40:46.031Z,3.39
2023-02-06T03:41:50.094Z,3.40
2023-02-06T03:42:54.286Z,3.40
2023-02-06T03:43:58.496Z,3.41
2023-02-06T03:45:02.539Z,3.41
2023-02-06T03:46:06.833Z,3.41
2023-02-06T03:47:10.959Z,3.41
2023-02-06T03:48:15.079Z,3.41
2023-02-06T03:49:19.265Z,3.41
2023-02-06T03:50:23.534Z,3.40
2023-02-06T03:51:27.668Z,3.40
2023-02-06T03:52:31.847Z,3.41
2023-02-06T03:53:36.024Z,3.40
2023-02-06T03:54:40.085Z,3.40
2023-02-06T03:55:44.355Z,3.39
2023-02-06T03:56:48.454Z,3.37
2023-02-06T03:57:52.638Z,3.36
2023-02-06T03:58:56.758Z,3.34
2023-02-06T04:00:00.874Z,3.33
2023-02-06T04:01:05.096Z,3.32
2023-02-06T04:02:09.259Z,3.32
2023-02-06T04:03:13.368Z,3.31
2023-02-06T04:04:17.560Z,3.31
2023-02-06T04:05:21.750Z,3.30
2023-02-06T04:06:25.801Z,3.30
2023-02-06T04:07:30.023Z,3.29
2023-02-06T04:08:34.306Z,3.29
2023-02-06T04:09:38.370Z,3.29
2023-02-06T04:10:42.574Z,3.29
2023-02-06T04:11:46.706Z,3.28
2023-02-06T04:12:50.914Z,3.28
2023-02-06T04:13:54.970Z,3.28
2023-02-06T04:14:59.309Z,3.28
2023-02-06T04:16:03.430Z,3.28
2023-02-06T04:17:07.552Z,3.28
2023-02-06T04:18:11.761Z,3.28
2023-02-06T04:19:15.882Z,3.27
2023-02-06T04:20:20.060Z,3.27
2023-02-06T04:21:24.349Z,3.27
2023-02-06T04:22:28.434Z,3.28
2023-02-06T04:23:32.731Z,3.28
2023-02-06T04:24:36.896Z,3.28
2023-02-06T04:25:41.041Z,3.28
2023-02-06T04:26:45.274Z,3.28
2023-02-06T04:27:49.406Z,3.28
2023-02-06T04:28:53.525Z,3.28
2023-02-06T04:29:57.706Z,3.27
2023-02-06T04:31:01.984Z,3.26
2023-02-06T04:32:06.065Z,3.26
2023-02-06T04:33:10.261Z,3.25
2023-02-06T04:34:14.458Z,3.25
2023-02-06T04:35:18.595Z,3.25
2023-02-06T04:36:22.828Z,3.25
2023-02-06T04:37:26.889Z,3.25
2023-02-06T04:38:31.094Z,3.25
2023-02-06T04:39:35.307Z,3.24
2023-02-06T04:40:39.470Z,3.24
2023-02-06T04:41:43.522Z,3.24
2023-02-06T04:42:47.633Z,3.24
2023-02-06T04:43:51.853Z,3.24
2023-02-06T04:44:56.012Z,3.23
2023-02-06T04:46:00.239Z,3.24
2023-02-06T04:47:04.182Z,3.24
2023-02-06T04:48:08.419Z,3.24
2023-02-06T04:49:12.618Z,3.24
2023-02-06T04:50:16.834Z,3.24
2023-02-06T04:51:20.905Z,3.24
2023-02-06T04:52:25.070Z,3.24
2023-02-06T04:53:29.259Z,3.23
2023-02-06T04:54:33.534Z,3.23
2023-02-06T04:55:38.013Z,3.23
2023-02-06T04:56:41.657Z,3.22
2023-02-06T04:57:45.779Z,3.22
2023-02-06T04:58:50.010Z,3.22
2023-02-06T04:59:54.138Z,3.23
2023-02-06T05:00:58.156Z,3.22
2023-02-06T05:02:02.443Z,3.22
2023-02-06T05:03:06.575Z,3.22
2023-02-06T05:04:10.781Z,3.22
2023-02-06T05:05:14.939Z,3.22
2023-02-06T05:06:19.154Z,3.21
2023-02-06T05:07:23.143Z,3.21
2023-02-06T05:08:27.406Z,3.21
2023-02-06T05:09:31.561Z,3.21
2023-02-06T05:10:35.832Z,3.21
2023-02-06T05:11:39.966Z,3.22
2023-02-06T05:12:44.040Z,3.22
2023-02-06T05:13:48.185Z,3.22
2023-02-06T05:14:52.325Z,3.22
2023-02-06T05:15:56.640Z,3.22
2023-02-06T05:17:00.555Z,3.22
2023-02-06T05:18:04.825Z,3.23
2023-02-06T05:19:08.864Z,3.23
2023-02-06T05:20:13.141Z,3.23
2023-02-06T05:21:17.274Z,3.23
2023-02-06T05:22:21.470Z,3.23
2023-02-06T05:23:25.505Z,3.23
2023-02-06T05:24:29.775Z,3.23
2023-02-06T05:25:34.109Z,3.23
2023-02-06T05:26:38.093Z,3.23
2023-02-06T05:27:48.327Z,3.23
2023-02-06T05:28:51.002Z,3.23
2023-02-06T05:29:55.251Z,3.23
2023-02-06T05:30:59.546Z,3.23
2023-02-06T05:32:03.461Z,3.22
2023-02-06T05:33:07.727Z,3.22
2023-02-06T05:34:11.795Z,3.21
2023-02-06T05:35:16.108Z,3.21
2023-02-06T05:36:20.296Z,3.21
2023-02-06T05:37:24.426Z,3.21
2023-02-06T05:38:28.459Z,3.21
2023-02-06T05:39:32.742Z,3.20
2023-02-06T05:40:36.990Z,3.21
2023-02-06T05:41:41.106Z,3.21
2023-02-06T05:42:45.304Z,3.21
2023-02-06T05:43:49.413Z,3.21
2023-02-06T05:44:53.607Z,3.20
2023-02-06T05:45:57.802Z,3.20
2023-02-06T05:47:01.982Z,3.20
2023-02-06T05:48:06.184Z,3.20
2023-02-06T05:49:10.263Z,3.20
2023-02-06T05:50:14.484Z,3.21
2023-02-06T05:51:18.599Z,3.21
2023-02-06T05:52:22.673Z,3.21
2023-02-06T05:53:26.829Z,3.21
2023-02-06T05:54:31.147Z,3.21
2023-02-06T05:55:35.601Z,3.21
2023-02-06T05:56:39.454Z,3.21
2023-02-06T05:57:43.644Z,3.21
2023-02-06T05:58:47.696Z,3.21
2023-02-06T05:59:51.921Z,3.21
2023-02-06T06:00:56.149Z,3.21
2023-02-06T06:02:00.266Z,3.22
2023-02-06T06:03:07.464Z,3.22
2023-02-06T06:04:10.782Z,3.21
2023-02-06T06:05:14.882Z,3.21
2023-02-06T06:06:19.148Z,3.20
2023-02-06T06:07:23.229Z,3.20
2023-02-06T06:08:27.466Z,3.20
2023-02-06T06:09:31.505Z,3.20
2023-02-06T06:10:35.597Z,3.20
2023-02-06T06:11:39.827Z,3.19
2023-02-06T06:12:43.974Z,3.19
2023-02-06T06:13:48.155Z,3.19
2023-02-06T06:14:52.303Z,3.19
2023-02-06T06:15:56.510Z,3.19
2023-02-06T06:17:00.680Z,3.18
2023-02-06T06:18:04.730Z,3.17
2023-02-06T06:19:09.002Z,3.17
2023-02-06T06:20:13.156Z,3.17
2023-02-06T06:21:18.236Z,3.16
2023-02-06T06:22:21.960Z,3.15
2023-02-06T06:23:26.160Z,3.13
2023-02-06T06:24:30.336Z,3.13
2023-02-06T06:25:34.851Z,3.11
2023-02-06T06:26:38.551Z,3.11
2023-02-06T06:27:42.845Z,3.11
2023-02-06T06:28:46.858Z,3.10
2023-02-06T06:29:51.260Z,3.09
2023-02-06T06:30:55.343Z,3.08
2023-02-06T06:31:59.589Z,3.08
2023-02-06T06:33:03.666Z,3.09
2023-02-06T06:34:07.754Z,3.09
2023-02-06T06:35:11.908Z,3.10
2023-02-06T06:36:16.010Z,3.10
2023-02-06T06:37:20.253Z,3.10
2023-02-06T06:38:24.318Z,3.10
2023-02-06T06:39:28.544Z,3.10
2023-02-06T06:40:32.755Z,3.10
2023-02-06T06:41:36.823Z,3.09
2023-02-06T06:42:40.916Z,3.09
2023-02-06T06:43:45.144Z,3.10
2023-02-06T06:44:49.399Z,3.09
2023-02-06T06:45:53.595Z,3.10
2023-02-06T06:46:57.697Z,3.09
2023-02-06T06:48:01.905Z,3.09
2023-02-06T06:49:06.046Z,3.09
2023-02-06T06:50:10.277Z,3.08
2023-02-06T06:51:14.269Z,3.08
2023-02-06T06:52:24.795Z,3.08
2023-02-06T06:53:22.605Z,3.07
2023-02-06T06:54:26.852Z,3.06
2023-02-06T06:55:30.993Z,3.06
2023-02-06T06:56:35.188Z,3.05
2023-02-06T06:57:39.266Z,3.05
2023-02-06T06:58:43.427Z,3.04
2023-02-06T06:59:47.576Z,3.04
2023-02-06T07:00:54.790Z,3.03
2023-02-06T07:01:57.933Z,3.03
2023-02-06T07:03:02.164Z,3.02
2023-02-06T07:04:06.144Z,3.02
2023-02-06T07:05:10.316Z,3.02
2023-02-06T07:06:14.603Z,3.03
2023-02-06T07:07:18.681Z,3.03
2023-02-06T07:08:22.938Z,3.03
2023-02-06T07:09:27.060Z,3.03
2023-02-06T07:10:31.197Z,3.03
2023-02-06T07:11:35.371Z,3.02
2023-02-06T07:12:39.527Z,3.02
2023-02-06T07:13:43.632Z,3.02
2023-02-06T07:14:47.799Z,3.03
2023-02-06T07:15:51.964Z,3.03
2023-02-06T07:16:56.193Z,3.03
2023-02-06T07:18:00.270Z,3.03
2023-02-06T07:19:04.336Z,3.02
2023-02-06T07:20:08.635Z,3.02
2023-02-06T07:21:12.737Z,3.02
2023-02-06T07:22:16.982Z,3.02
2023-02-06T07:23:21.068Z,3.02
2023-02-06T07:24:25.139Z,3.02
2023-02-06T07:25:29.256Z,3.03
2023-02-06T07:26:33.462Z,3.03
2023-02-06T07:27:37.543Z,3.03
2023-02-06T07:28:41.758Z,3.04
2023-02-06T07:29:45.998Z,3.04
2023-02-06T07:30:50.183Z,3.02
2023-02-06T07:31:54.332Z,3.03
2023-02-06T07:32:58.442Z,3.03
2023-02-06T07:34:02.491Z,3.03
2023-02-06T07:35:06.795Z,3.03
2023-02-06T07:36:10.963Z,3.03
2023-02-06T07:37:15.255Z,3.03
2023-02-06T07:38:19.353Z,3.03
2023-02-06T07:39:23.520Z,3.03
2023-02-06T07:40:33.678Z,3.04
2023-02-06T07:41:31.786Z,3.04
2023-02-06T07:42:36.042Z,3.05
2023-02-06T07:43:40.162Z,3.05
2023-02-06T07:44:44.356Z,3.05
2023-02-06T07:45:48.454Z,3.05
2023-02-06T07:46:52.601Z,3.05
2023-02-06T07:47:56.779Z,3.05
2023-02-06T07:49:00.944Z,3.04
2023-02-06T07:50:05.231Z,3.04
2023-02-06T07:51:09.475Z,3.05
2023-02-06T07:52:13.605Z,3.06
2023-02-06T07:53:17.785Z,3.07
2023-02-06T07:54:22.033Z,3.08
2023-02-06T07:55:26.308Z,3.09
2023-02-06T07:56:30.468Z,3.09
2023-02-06T07:57:34.685Z,3.10
2023-02-06T07:58:38.903Z,3.10
2023-02-06T07:59:43.006Z,3.10
2023-02-06T08:00:47.199Z,3.10
2023-02-06T08:01:51.373Z,3.10
2023-02-06T08:02:55.473Z,3.10
2023-02-06T08:03:59.681Z,3.10
2023-02-06T08:05:03.747Z,3.10
2023-02-06T08:06:07.970Z,3.10
2023-02-06T08:07:12.052Z,3.09
2023-02-06T08:08:19.273Z,3.09
2023-02-06T08:09:22.422Z,3.09
2023-02-06T08:10:26.702Z,3.10
2023-02-06T08:11:30.717Z,3.09
2023-02-06T08:12:34.943Z,3.10
2023-02-06T08:13:39.010Z,3.10
2023-02-06T08:14:43.264Z,3.11
2023-02-06T08:15:47.379Z,3.12
2023-02-06T08:16:51.650Z,3.12
2023-02-06T08:17:58.844Z,3.12
2023-02-06T08:19:02.076Z,3.11
2023-02-06T08:20:06.164Z,3.11
2023-02-06T08:21:10.425Z,3.11
2023-02-06T08:22:14.473Z,3.11
2023-02-06T08:23:20.760Z,3.11
2023-02-06T08:24:22.895Z,3.12
2023-02-06T08:25:27.053Z,3.12
2023-02-06T08:26:31.245Z,3.12
2023-02-06T08:27:49.492Z,3.12
2023-02-06T08:28:52.498Z,3.13
2023-02-06T08:29:56.653Z,3.13
2023-02-06T08:31:00.871Z,3.14
2023-02-06T08:32:04.806Z,3.14
2023-02-06T08:33:09.112Z,3.14
2023-02-06T08:34:13.237Z,3.15
2023-02-06T08:35:17.264Z,3.15
2023-02-06T08:36:21.451Z,3.15
2023-02-06T08:37:25.625Z,3.14
2023-02-06T08:38:29.826Z,3.15
2023-02-06T08:39:34.050Z,3.16
2023-02-06T08:40:38.182Z,3.16
2023-02-06T08:41:42.285Z,3.16
2023-02-06T08:42:46.449Z,3.15
2023-02-06T08:43:50.623Z,3.15
2023-02-06T08:44:54.677Z,3.16
2023-02-06T08:45:58.967Z,3.17
2023-02-06T08:47:10.051Z,3.17
2023-02-06T08:48:07.240Z,3.17
2023-02-06T08:49:11.507Z,3.16
2023-02-06T08:50:15.552Z,3.16
2023-02-06T08:51:19.680Z,3.16
2023-02-06T08:52:23.886Z,3.17
2023-02-06T08:53:28.062Z,3.18
2023-02-06T08:54:34.780Z,3.18
2023-02-06T08:55:36.343Z,3.20
2023-02-06T08:56:40.518Z,3.22
2023-02-06T08:57:44.662Z,3.23
2023-02-06T08:58:48.831Z,3.25
2023-02-06T08:59:53.082Z,3.26
2023-02-06T09:00:57.105Z,3.27
2023-02-06T09:02:01.411Z,3.28
2023-02-06T09:03:05.639Z,3.29
2023-02-06T09:04:09.768Z,3.30
2023-02-06T09:05:13.939Z,3.32
2023-02-06T09:06:18.096Z,3.34
2023-02-06T09:07:22.236Z,3.36
2023-02-06T09:08:26.382Z,3.37
2023-02-06T09:09:30.633Z,3.38
2023-02-06T09:10:34.776Z,3.39
2023-02-06T09:11:38.957Z,3.41
2023-02-06T09:12:43.189Z,3.42
2023-02-06T09:13:49.250Z,3.44
2023-02-06T09:14:51.451Z,3.44
2023-02-06T09:15:55.767Z,3.46
2023-02-06T09:16:59.950Z,3.48
2023-02-06T09:18:04.098Z,3.50
2023-02-06T09:19:08.184Z,3.51
2023-02-06T09:20:12.520Z,3.53
2023-02-06T09:21:16.804Z,3.55
2023-02-06T09:22:20.761Z,3.55
2023-02-06T09:23:24.993Z,3.53
2023-02-06T09:24:29.163Z,3.52
2023-02-06T09:25:33.607Z,3.51
2023-02-06T09:26:40.563Z,3.50
2023-02-06T09:27:41.622Z,3.51
2023-02-06T09:28:45.824Z,3.52
2023-02-06T09:29:49.998Z,3.55
2023-02-06T09:30:54.274Z,3.58
2023-02-06T09:31:58.267Z,3.60
2023-02-06T09:33:02.481Z,3.59
2023-02-06T09:34:06.644Z,3.57
2023-02-06T09:35:10.885Z,3.56
2023-02-06T09:36:14.940Z,3.57
2023-02-06T09:37:19.336Z,3.57
2023-02-06T09:38:23.446Z,3.57
2023-02-06T09:39:27.596Z,3.57
2023-02-06T09:40:31.784Z,3.55
2023-02-06T09:41:35.954Z,3.51
2023-02-06T09:42:43.275Z,3.47
2023-02-06T09:43:46.473Z,3.44
2023-02-06T09:44:50.687Z,3.41
2023-02-06T09:45:54.815Z,3.38
2023-02-06T09:46:58.894Z,3.36
2023-02-06T09:48:03.254Z,3.35
2023-02-06T09:49:07.344Z,3.34
2023-02-06T09:50:11.621Z,3.33
2023-02-06T09:51:15.853Z,3.33
2023-02-06T09:52:20.034Z,3.33
2023-02-06T09:53:24.277Z,3.33
2023-02-06T09:54:28.295Z,3.35
2023-02-06T09:55:32.545Z,3.36
2023-02-06T09:56:36.763Z,3.39
2023-02-06T09:57:40.812Z,3.42
2023-02-06T09:58:45.082Z,3.45
2023-02-06T09:59:49.226Z,3.48
2023-02-06T10:00:53.513Z,3.50
2023-02-06T10:01:57.858Z,3.53
2023-02-06T10:03:02.004Z,3.57
2023-02-06T10:04:06.065Z,3.62
2023-02-06T10:05:10.272Z,3.64
2023-02-06T10:06:14.412Z,3.68
2023-02-06T10:07:18.910Z,3.69
2023-02-06T10:08:22.968Z,3.71
2023-02-06T10:09:27.322Z,3.72
2023-02-06T10:10:31.305Z,3.73
2023-02-06T10:11:35.631Z,3.74
2023-02-06T10:12:39.757Z,3.77
2023-02-06T10:13:44.037Z,3.78
2023-02-06T10:14:48.294Z,3.78
2023-02-06T10:15:52.611Z,3.79
2023-02-06T10:16:56.735Z,3.81
2023-02-06T10:18:00.911Z,3.81
2023-02-06T10:19:05.021Z,3.80
2023-02-06T10:20:09.339Z,3.79
2023-02-06T10:21:13.360Z,3.81
2023-02-06T10:22:17.577Z,3.82
2023-02-06T10:23:21.900Z,3.83
2023-02-06T10:24:26.021Z,3.83
2023-02-06T10:25:30.315Z,3.85
2023-02-06T10:26:34.427Z,3.86
2023-02-06T10:27:38.679Z,3.88
2023-02-06T10:28:42.893Z,3.90
2023-02-06T10:29:47.163Z,3.90
2023-02-06T10:30:51.556Z,3.92
2023-02-06T10:31:55.664Z,3.92
2023-02-06T10:32:59.889Z,3.94
2023-02-06T10:34:04.106Z,3.95
2023-02-06T10:35:08.346Z,3.96
2023-02-06T10:36:12.545Z,3.94
2023-02-06T10:37:16.673Z,3.95
2023-02-06T10:38:20.870Z,3.96
2023-02-06T10:39:25.076Z,3.95
2023-02-06T10:40:29.240Z,3.93
2023-02-06T10:41:33.527Z,3.88
2023-02-06T10:42:40.705Z,3.89
2023-02-06T10:43:44.048Z,3.89
2023-02-06T10:44:51.440Z,3.92
2023-02-06T10:45:52.259Z,3.94
2023-02-06T10:46:56.670Z,3.97
2023-02-06T10:48:00.654Z,3.98
2023-02-06T10:49:04.753Z,3.95
2023-02-06T10:50:09.112Z,3.91
2023-02-06T10:51:13.275Z,3.90
2023-02-06T10:52:17.687Z,3.91
2023-02-06T10:53:21.651Z,3.93
2023-02-06T10:54:25.945Z,3.94
2023-02-06T10:55:30.034Z,3.96
2023-02-06T10:56:34.322Z,3.98
2023-02-06T10:57:38.573Z,4.00
2023-02-06T10:58:42.786Z,4.02
2023-02-06T10:59:47.017Z,4.02
2023-02-06T11:00:51.334Z,4.03
2023-02-06T11:01:55.293Z,4.04
2023-02-06T11:03:07.050Z,4.06
2023-02-06T11:04:03.850Z,4.07
2023-02-06T11:05:08.076Z,4.06
2023-02-06T11:06:12.305Z,4.03
2023-02-06T11:07:16.463Z,4.03
2023-02-06T11:08:20.667Z,4.03
2023-02-06T11:09:24.906Z,4.03
2023-02-06T11:10:29.147Z,4.03
2023-02-06T11:11:33.240Z,4.02
2023-02-06T11:12:37.507Z,4.05
2023-02-06T11:13:41.770Z,4.05
2023-02-06T11:14:45.772Z,4.04
2023-02-06T11:15:50.121Z,4.01
2023-02-06T11:16:54.355Z,3.99
2023-02-06T11:17:58.600Z,4.00
2023-02-06T11:19:02.693Z,3.99
2023-02-06T11:20:07.013Z,3.99
2023-02-06T11:21:11.219Z,3.98
2023-02-06T11:22:15.482Z,3.98
2023-02-06T11:23:19.618Z,3.99
2023-02-06T11:24:23.794Z,4.00
2023-02-06T11:25:28.095Z,3.99
2023-02-06T11:26:32.283Z,3.98
2023-02-06T11:27:36.592Z,4.00
2023-02-06T11:28:40.658Z,4.01
2023-02-06T11:29:44.973Z,4.00
2023-02-06T11:30:49.111Z,4.03
2023-02-06T11:31:53.410Z,4.06
2023-02-06T11:33:04.445Z,4.08
2023-02-06T11:34:02.629Z,4.08
2023-02-06T11:35:06.483Z,4.07
2023-02-06T11:36:10.744Z,4.06
2023-02-06T11:37:14.879Z,4.05
2023-02-06T11:38:19.046Z,4.06
2023-02-06T11:39:23.332Z,4.09
2023-02-06T11:40:27.532Z,4.08
2023-02-06T11:41:31.781Z,4.08
2023-02-06T11:42:36.007Z,4.08
2023-02-06T11:43:48.491Z,4.09
2023-02-06T11:44:49.090Z,4.10
2023-02-06T11:45:53.280Z,4.10
2023-02-06T11:46:57.510Z,4.10
2023-02-06T11:48:01.704Z,4.09
2023-02-06T11:49:05.954Z,4.11
2023-02-06T11:50:10.050Z,4.12
2023-02-06T11:51:14.128Z,4.14
2023-02-06T11:52:18.342Z,4.14
2023-02-06T11:53:22.651Z,4.14
2023-02-06T11:54:26.861Z,4.13
2023-02-06T11:55:31.009Z,4.11
2023-02-06T11:56:35.152Z,4.09
2023-02-06T11:57:39.325Z,4.07
2023-02-06T11:58:43.628Z,4.04
2023-02-06T11:59:47.913Z,4.01
2023-02-06T12:00:52.142Z,4.01
2023-02-06T12:01:56.224Z,4.01
2023-02-06T12:03:00.598Z,4.01
2023-02-06T12:04:04.658Z,4.03
2023-02-06T12:05:08.803Z,4.05
2023-02-06T12:06:12.854Z,4.08
2023-02-06T12:07:17.098Z,4.11
2023-02-06T12:08:21.242Z,4.13
2023-02-06T12:09:25.423Z,4.14
2023-02-06T12:10:29.607Z,4.16
2023-02-06T12:11:33.781Z,4.17
2023-02-06T12:12:38.005Z,4.16
2023-02-06T12:13:42.196Z,4.15
2023-02-06T12:14:46.385Z,4.12
2023-02-06T12:15:50.914Z,4.09
2023-02-06T12:16:54.921Z,4.09
2023-02-06T12:17:58.966Z,4.09
2023-02-06T12:19:03.198Z,4.10
2023-02-06T12:20:07.385Z,4.09
2023-02-06T12:21:11.602Z,4.10
2023-02-06T12:22:15.832Z,4.11
2023-02-06T12:23:19.933Z,4.11
2023-02-06T12:24:24.090Z,4.11
2023-02-06T12:25:28.307Z,4.12
2023-02-06T12:26:32.505Z,4.13
2023-02-06T12:27:39.035Z,4.14
2023-02-06T12:28:40.858Z,4.15
2023-02-06T12:29:45.061Z,4.15
2023-02-06T12:30:49.420Z,4.16
2023-02-06T12:31:53.550Z,4.18
2023-02-06T12:32:57.723Z,4.19
2023-02-06T12:34:01.819Z,4.18
2023-02-06T12:35:05.985Z,4.20
2023-02-06T12:36:10.081Z,4.20
2023-02-06T12:37:14.360Z,4.20
2023-02-06T12:38:18.513Z,4.21
2023-02-06T12:39:25.676Z,4.22
2023-02-06T12:40:28.842Z,4.23
2023-02-06T12:41:33.102Z,4.22
2023-02-06T12:42:37.260Z,4.22
2023-02-06T12:43:41.398Z,4.22
2023-02-06T12:44:45.597Z,4.22
2023-02-06T12:45:49.871Z,4.22
2023-02-06T12:46:53.993Z,4.20
2023-02-06T12:47:58.202Z,4.19
2023-02-06T12:49:02.415Z,4.17
2023-02-06T12:50:06.583Z,4.16
2023-02-06T12:51:10.787Z,4.16
2023-02-06T12:52:14.950Z,4.16
2023-02-06T12:53:19.128Z,4.18
2023-02-06T12:54:23.336Z,4.19
2023-02-06T12:55:27.548Z,4.21
2023-02-06T12:56:31.687Z,4.22
2023-02-06T12:57:35.916Z,4.22
2023-02-06T12:58:40.183Z,4.20
2023-02-06T12:59:57.040Z,4.16
2023-02-06T13:00:48.483Z,4.12
2023-02-06T13:01:52.705Z,4.10
2023-02-06T13:02:56.978Z,4.10
2023-02-06T13:04:01.084Z,4.10
2023-02-06T13:05:05.451Z,4.12
2023-02-06T13:06:09.543Z,4.11
2023-02-06T13:07:13.705Z,4.12
2023-02-06T13:08:17.870Z,4.12
2023-02-06T13:09:22.068Z,4.14
2023-02-06T13:10:26.218Z,4.16
2023-02-06T13:11:30.430Z,4.19
2023-02-06T13:12:34.565Z,4.18
2023-02-06T13:13:38.992Z,4.15
2023-02-06T13:14:43.091Z,4.07
2023-02-06T13:15:47.434Z,4.01
2023-02-06T13:16:51.625Z,3.94
2023-02-06T13:17:55.775Z,3.93
2023-02-06T13:18:59.943Z,3.94
2023-02-06T13:20:04.107Z,3.97
2023-02-06T13:21:08.328Z,4.00
2023-02-06T13:22:12.480Z,4.03
2023-02-06T13:23:16.785Z,4.05
2023-02-06T13:24:21.015Z,4.06
2023-02-06T13:25:25.145Z,4.08
2023-02-06T13:26:29.357Z,4.09
2023-02-06T13:27:33.546Z,4.10
2023-02-06T13:28:37.724Z,4.12
2023-02-06T13:29:41.905Z,4.13
2023-02-06T13:30:46.278Z,4.11
2023-02-06T13:31:50.272Z,4.12
2023-02-06T13:32:54.460Z,4.09
2023-02-06T13:33:58.641Z,4.10
2023-02-06T13:35:02.822Z,4.12
2023-02-06T13:36:07.032Z,4.12
2023-02-06T13:37:11.249Z,4.12
2023-02-06T13:38:15.352Z,4.12
2023-02-06T13:39:19.488Z,4.13
2023-02-06T13:40:23.789Z,4.14
2023-02-06T13:41:27.854Z,4.15
2023-02-06T13:42:32.077Z,4.15
2023-02-06T13:43:36.382Z,4.14
2023-02-06T13:44:40.484Z,4.13
2023-02-06T13:45:44.716Z,4.13
2023-02-06T13:46:48.970Z,4.12
2023-02-06T13:47:53.041Z,4.11
2023-02-06T13:48:57.492Z,4.10
2023-02-06T13:50:01.571Z,4.08
2023-02-06T13:51:05.728Z,4.04
2023-02-06T13:52:09.916Z,4.03
2023-02-06T13:53:14.110Z,4.04
2023-02-06T13:54:18.283Z,4.06
2023-02-06T13:55:22.450Z,4.06
2023-02-06T13:56:26.719Z,4.05
2023-02-06T13:57:30.874Z,4.04
2023-02-06T13:58:35.041Z,4.03
2023-02-06T13:59:39.226Z,4.02
2023-02-06T14:00:43.403Z,4.02
2023-02-06T14:01:47.639Z,4.01
2023-02-06T14:02:51.778Z,3.99
2023-02-06T14:03:55.886Z,3.99
2023-02-06T14:05:00.182Z,3.98
2023-02-06T14:06:04.311Z,3.96
2023-02-06T14:07:08.431Z,3.93
2023-02-06T14:08:12.633Z,3.92
2023-02-06T14:09:16.810Z,3.91
2023-02-06T14:10:21.038Z,3.91
2023-02-06T14:11:25.163Z,3.91
2023-02-06T14:12:29.352Z,3.92
2023-02-06T14:13:33.548Z,3.93
2023-02-06T14:14:37.622Z,3.93
2023-02-06T14:15:41.763Z,3.94